x

Grand Traverse Light, Mi (gtlm4) Weather Station

10:40pm - Sat 28th Mar 2015 All times are CDT. -5 hours from GMT.

  • Wind
    7mph, 13mph gusts
  • Air Temp 23°f
  • Sea Pressure 1023.4mb
  • Grand Traverse Light, Mi
  • Grand Traverse Light, Mi

More Historic Weather Station data

Upgrade to MSW Pro to gain access to the past 30 days of data for over 8000 Wavebouys and Weather Stations around the globe.

Join Pro

Comparision Forecast

View Surf forecast
   
Sat 03/28 10:40pm 7 13 mph 1023.4mb 23f
10:30pm 6 13 mph 1023.4mb 23f
10:20pm 6 11 mph 1023.7mb 23f
10:10pm 6 14 mph 1023.7mb 23f
10:00pm 6 10 mph 1024mb 23f
9:40pm 5 9 mph 1024mb 23f
9:30pm 6 9 mph 1024mb 23f
9:20pm 6 9 mph 1024mb 23f
9:10pm 6 14 mph 1024.4mb 23f
9:00pm 5 10 mph 1024mb 23f
8:40pm 6 10 mph 1024mb 23f
8:30pm 6 10 mph 1024mb 23f
8:20pm 6 9 mph 1024mb 23f
8:10pm 6 10 mph 1024mb 22f
8:00pm 3 7 mph 1024mb 22f
7:40pm 1 5 mph 1024mb 23f
7:30pm 3 6 mph 1024mb 23f
7:20pm 3 6 mph 1024mb 24f
7:10pm 3 6 mph 1024mb 25f
7:00pm 6 9 mph 1024mb 26f
6:40pm 9 10 mph 1024.4mb 27f
6:30pm 8 9 mph 1024.4mb 28f
6:20pm 7 8 mph 1024.4mb 28f
6:10pm 7 8 mph 1024.7mb 28f
6:00pm 7 9 mph 1025.1mb 29f
5:40pm 8 10 mph 1025.1mb 28f
5:30pm 10 13 mph 1025.1mb 28f
5:20pm 10 13 mph 1025.4mb 28f
5:10pm 10 11 mph 1025.4mb 28f
5:00pm 9 10 mph 1025.4mb 28f
4:40pm 8 10 mph 1025.4mb 28f
4:30pm 8 10 mph 1025.4mb 28f
4:20pm 8 11 mph 1025.4mb 27f
4:10pm 10 13 mph 1025.7mb 27f
4:00pm 13 14 mph 1025.7mb 27f
3:40pm 11 13 mph 1026.1mb 27f
3:30pm 10 13 mph 1026.1mb 27f
3:20pm 10 13 mph 1026.1mb 26f
3:10pm 11 14 mph 1026.1mb 27f
3:00pm 10 13 mph 1026.1mb 26f
2:40pm 8 11 mph 1026.1mb 26f
2:30pm 9 11 mph 1026.1mb 26f
2:20pm 9 11 mph 1026.4mb 26f
2:10pm 9 10 mph 1026.4mb 26f
2:00pm 8 9 mph 1026.4mb 26f
1:40pm 9 11 mph 1026.8mb 25f
1:30pm 8 9 mph 1027.1mb 25f
1:20pm 7 9 mph 1027.1mb 25f
1:10pm 9 10 mph 1027.1mb 24f
1:00pm 9 10 mph 1027.1mb 25f
12:40pm 9 10 mph 1027.4mb 25f
12:30pm 6 8 mph 1027.4mb 25f
12:20pm 7 8 mph 1027.8mb 24f
12:10pm 6 8 mph 1027.4mb 24f
12:00pm 7 8 mph 1027.8mb 24f
11:40am 5 6 mph 1027.4mb 23f
11:30am 5 6 mph 1027.8mb 23f
11:20am 5 6 mph 1028.1mb 23f
11:10am 6 7 mph 1028.1mb 23f
11:00am 5 6 mph 1028.1mb 23f
10:40am 5
mph
1028.1mb 22f
10:30am 3 5 mph 1028.1mb 22f
10:20am 3 5 mph 1027.8mb 21f
10:10am 3 5 mph 1027.8mb 22f
10:00am 2 5 mph 1028.1mb 22f
9:40am 5 6 mph 1028.1mb 20f
9:30am 5 6 mph 1028.1mb 19f
9:20am 5 6 mph 1027.8mb 19f
9:10am 3 5 mph 1028.1mb 18f
9:00am 5 6 mph 1028.1mb 16f
8:40am 2 3 mph 1027.8mb 15f
8:30am 3 5 mph 1028.1mb 15f
8:20am 5
mph
1027.8mb 15f
8:10am 2 3 mph 1027.8mb 15f
8:00am 2 5 mph 1027.8mb 14f
7:40am 3 5 mph 1027.4mb 12f
7:30am 3 5 mph 1027.4mb 11f
7:20am 3
mph
1027.1mb 10f
7:10am 3 5 mph 1027.1mb 9f
7:00am 3 5 mph 1027.1mb 9f
6:40am 3
mph
1026.8mb 8f
6:30am 2 3 mph 1026.8mb 8f
6:20am 3
mph
1026.4mb 8f
6:10am 3 6 mph 1026.4mb 8f
6:00am 5
mph
1026.4mb 8f
5:40am 2 3 mph 1026.1mb 8f
5:30am 2 3 mph 1025.7mb 8f
5:20am 2 3 mph 1025.7mb 8f
5:10am  -  2 mph 1025.7mb 8f
5:00am  -  2 mph 1025.7mb 8f
4:40am 3 5 mph 1025.4mb 8f
4:30am 1 3 mph 1025.4mb 8f
4:20am 2
mph
1025.4mb 8f
4:10am  -  3 mph 1025.1mb 8f
4:00am 3
mph
1025.1mb 8f
3:40am  -  mph 1025.1mb 7f
3:30am  -  mph 1025.1mb 8f
3:20am  -  2 mph 1025.1mb 8f
3:10am 2
mph
1025.1mb 8f
3:00am 1 2 mph 1025.1mb 8f
2:40am 2 3 mph 1025.1mb 9f
2:30am 2 3 mph 1025.1mb 9f
2:20am 3
mph
1025.1mb 10f
2:10am 2 6 mph 1025.1mb 10f
2:00am 5 6 mph 1025.4mb 10f
1:40am 6 9 mph 1025.1mb 11f
1:30am 6 8 mph 1024.7mb 10f
1:20am 5 7 mph 1025.1mb 10f
1:10am 5 6 mph 1025.1mb 10f
1:00am 5 8 mph 1025.1mb 11f
12:40am 7 9 mph 1025.1mb 11f
12:30am 7 9 mph 1024.7mb 12f
12:20am 6 8 mph 1024.7mb 12f
12:10am 7 9 mph 1025.1mb 12f
12:00am 7 8 mph 1025.1mb 12f
Fri 03/27 11:40pm 8 9 mph 1025.1mb 13f
11:30pm 8 10 mph 1024.7mb 13f
11:20pm 9 10 mph 1024.7mb 13f
11:10pm 7 11 mph 1024.7mb 14f
11:00pm 10 13 mph 1024.7mb 14f
10:50pm 11 14 mph 1024.4mb 14f
10:40pm 10 14 mph 1024.4mb 14f
10:30pm 11 14 mph 1024.4mb 14f
10:20pm 10 13 mph 1024.4mb 15f
10:10pm 11 13 mph 1024.4mb 15f
10:00pm 10 14 mph 1024.4mb 15f
9:50pm 10 13 mph 1024.4mb 15f
9:40pm 9 10 mph 1024.4mb 15f
9:30pm 9 11 mph 1024.4mb 15f
9:20pm 8 11 mph 1024mb 15f
9:10pm 9 13 mph 1024mb 15f
9:00pm 9 14 mph 1024mb 15f
8:50pm 11 14 mph 1024mb 16f
8:40pm 10 14 mph 1023.7mb 16f
8:30pm 13 15 mph 1023.7mb 16f
8:20pm 14 16 mph 1023.7mb 16f
8:10pm 11 14 mph 1023.7mb 16f
8:00pm 9 13 mph 1023.7mb 16f
7:50pm 9 13 mph 1023.4mb 16f
7:40pm 9 13 mph 1023.4mb 16f
7:30pm 10 14 mph 1023.4mb 17f
7:20pm 11 13 mph 1023.4mb 17f
7:10pm 7 13 mph 1023.4mb 17f
7:00pm 8 11 mph 1023.4mb 17f
6:50pm 11 14 mph 1023.4mb 18f
6:40pm 8 15 mph 1023mb 18f
6:30pm 13 15 mph 1023mb 18f
6:20pm 13 15 mph 1023mb 19f
6:10pm 10 15 mph 1023mb 19f
6:00pm 13 15 mph 1023mb 19f
5:50pm 13 15 mph 1022.7mb 19f
5:40pm 10 15 mph 1022.7mb 20f
5:30pm 11 16 mph 1022.7mb 20f
5:20pm 10 15 mph 1022.4mb 19f
5:10pm 11 15 mph 1022.7mb 20f
5:00pm 11 17 mph 1022.4mb 19f
4:50pm 11 15 mph 1022.4mb 19f
4:40pm 13 15 mph 1022.4mb 19f
4:30pm 11 16 mph 1022.7mb 19f
4:20pm 11 14 mph 1022.7mb 19f
4:10pm 11 16 mph 1022.4mb 19f
4:00pm 9 15 mph 1022.7mb 18f
3:50pm 13 14 mph 1022.7mb 18f
3:40pm 11 15 mph 1022.7mb 18f
3:30pm 13 15 mph 1022.4mb 18f
3:20pm 10 15 mph 1022.4mb 19f
3:10pm 10 16 mph 1022.7mb 19f
3:00pm 11 16 mph 1022.7mb 18f
2:50pm 14 20 mph 1022.7mb 17f
2:40pm 11 16 mph 1022.7mb 17f
2:30pm 10 14 mph 1022.7mb 17f
2:20pm 10 15 mph 1022.7mb 17f
2:10pm 9 16 mph 1022.7mb 17f
2:00pm 10 14 mph 1022.7mb 16f
1:50pm 9 11 mph 1023mb 16f
1:40pm 10 16 mph 1023mb 15f
1:30pm 13 17 mph 1023.4mb 15f
1:20pm 13 16 mph 1023.4mb 14f
1:10pm 14 18 mph 1023.4mb 14f
1:00pm 11 17 mph 1023.4mb 14f
12:50pm 13 16 mph 1023.4mb 13f
12:40pm 15 18 mph 1023mb 13f
12:30pm 14 17 mph 1023.4mb 12f
12:20pm 13 18 mph 1023.4mb 12f
12:10pm 16 20 mph 1023mb 11f
12:00pm 15 20 mph 1023mb 11f
11:40am 17 21 mph 1023.4mb 10f
11:30am 17 21 mph 1023.4mb 10f
11:20am 17 22 mph 1023.4mb 10f
11:10am 16 20 mph 1023.4mb 10f
11:00am 18 22 mph 1023.4mb 9f
10:50am 18 22 mph 1023.4mb 9f
10:40am 18 23 mph 1023.4mb 9f
10:30am 20 23 mph 1023.4mb 10f
10:20am 18 22 mph 1023mb 9f
10:10am 18 22 mph 1023mb 9f
10:00am 20 22 mph 1023.4mb 9f
9:50am 20 25 mph 1023mb 8f
9:40am 18 23 mph 1023.4mb 9f
9:30am 20 24 mph 1023mb 9f
9:20am 23 25 mph 1023mb 9f
9:10am 21 24 mph 1022.7mb 10f
9:00am 14 18 mph 1022.7mb 10f
8:50am 17 21 mph 1022.7mb 10f
8:40am 15 20 mph 1022.7mb 11f
8:30am 15 20 mph 1022.7mb 12f
8:20am 13 18 mph 1022.7mb 12f
8:10am 16 18 mph 1022.4mb 13f
8:00am 14 17 mph 1022.7mb 12f
7:50am 15 18 mph 1022.7mb 12f
7:40am 14 17 mph 1022.4mb 12f
7:30am 16 21 mph 1022.4mb 12f
7:20am 15 18 mph 1022.4mb 12f
7:10am 16 21 mph 1022.4mb 12f
7:00am 15 18 mph 1022mb 12f
6:50am 16 20 mph 1022mb 12f
6:40am 16 18 mph 1021.7mb 12f
6:30am 13 18 mph 1021.7mb 12f
6:20am 16 21 mph 1021.7mb 12f
6:10am 15 20 mph 1021.3mb 12f
6:00am 14 20 mph 1021.3mb 13f
5:50am 15 17 mph 1021mb 13f
5:40am 15 18 mph 1021mb 13f
5:30am 13 18 mph 1021mb 13f
5:20am 11 17 mph 1020.7mb 13f
5:10am 15 20 mph 1020.7mb 13f
5:00am 15 18 mph 1020.7mb 13f
4:50am 16 20 mph 1020.3mb 14f
4:40am 13 21 mph 1020.3mb 14f
4:30am 16 20 mph 1020.3mb 14f
4:20am 14 21 mph 1020.3mb 14f
4:10am 16 21 mph 1020.3mb 14f
4:00am 15 22 mph 1020.3mb 14f
3:50am 17 22 mph 1020mb 14f
3:40am 17 21 mph 1020.3mb 14f
3:30am 16 22 mph 1020mb 14f
3:20am 20 23 mph 1020mb 15f
3:10am 17 24 mph 1020mb 15f
3:00am 18 24 mph 1019.6mb 15f
2:50am 16 21 mph 1019.6mb 15f
2:40am 17 22 mph 1020mb 15f
2:30am 16 22 mph 1019.6mb 16f
2:20am 15 24 mph 1020mb 16f
2:10am 17 26 mph 1019.6mb 17f
2:00am 20 24 mph 1019.6mb 18f
1:50am 16 23 mph 1019.6mb 18f
1:40am 20 26 mph 1019.6mb 18f
1:30am 16 20 mph 1019.6mb 17f
1:20am 17 23 mph 1019.6mb 17f
1:10am 17 24 mph 1019.6mb 18f
1:00am 17 22 mph 1019.3mb 18f
12:50am 18 26 mph 1019.6mb 19f
12:40am 16 23 mph 1019.3mb 19f
12:30am 18 26 mph 1019.3mb 19f
12:20am 17 23 mph 1019.3mb 19f
12:10am 20 26 mph 1019.3mb 19f
12:00am 18 24 mph 1019.3mb 19f
Thu 03/26 11:40pm 21 26 mph 1019.3mb 19f
11:30pm 16 26 mph 1019mb 19f
11:20pm 22 26 mph 1019mb 19f
11:10pm 17 25 mph 1019.3mb 19f
11:00pm 21 26 mph 1019mb 19f
10:50pm 18 28 mph 1019mb 19f
10:40pm 18 25 mph 1019mb 19f
10:30pm 21 26 mph 1019mb 19f
10:20pm 22 28 mph 1019.3mb 19f
10:10pm 20 28 mph 1019mb 19f
10:00pm 21 28 mph 1019mb 19f
9:50pm 21 28 mph 1019mb 19f
9:40pm 20 31 mph 1019.3mb 19f
9:30pm 17 29 mph 1019mb 19f
9:23pm 22 29 mph 1019mb 19f
9:20pm 25 29 mph 1019.3mb 19f
9:10pm 18 28 mph 1019mb 19f
9:00pm 20 28 mph 1019mb 19f
8:50pm 23 29 mph 1018.6mb 19f
8:40pm 18 26 mph 1018.6mb 19f
8:30pm 17 26 mph 1018.6mb 19f
8:20pm 22 26 mph 1018.6mb 19f
8:10pm 22 29 mph 1018.6mb 19f
8:00pm 23 30 mph 1018.3mb 19f
7:54pm 20 30 mph 1018.3mb 20f
7:50pm 21 28 mph 1018.3mb 20f
7:40pm 21 25 mph 1018.3mb 20f
7:30pm 18 24 mph 1017.9mb 20f
7:20pm 21 29 mph 1017.9mb 20f
7:10pm 21 26 mph 1017.9mb 20f
7:00pm 22 26 mph 1017.6mb 20f
6:50pm 21 25 mph 1017.6mb 20f
6:40pm 20 25 mph 1017.6mb 20f
5:40pm 21 26 mph 1016.6mb 21f
5:30pm 22 28 mph 1016.3mb 21f
5:20pm 18 25 mph 1016.3mb 21f
5:10pm 18 25 mph 1015.9mb 22f
5:00pm 18 25 mph 1015.9mb 22f
4:50pm 18 25 mph 1015.6mb 22f
4:40pm 20 26 mph 1015.6mb 23f
4:30pm 21 25 mph 1015.2mb 23f
4:20pm 21 25 mph 1014.9mb 24f
4:10pm 18 28 mph 1014.9mb 24f
4:00pm 18 24 mph 1014.9mb 24f
3:50pm 18 24 mph 1014.9mb 24f
3:40pm 21 25 mph 1014.6mb 24f
3:30pm 23 26 mph 1014.6mb 24f
3:20pm 23 28 mph 1014.2mb 25f
3:10pm 21 28 mph 1014.2mb 25f
3:00pm 24 30 mph 1013.9mb 25f
2:50pm 24 30 mph 1013.9mb 25f
2:40pm 23 32 mph 1013.9mb 25f
2:30pm 25 31 mph 1013.9mb 25f
2:20pm 25 29 mph 1013.5mb 26f
2:10pm 23 29 mph 1013.5mb 26f
2:00pm 22 30 mph 1013.5mb 26f
1:59pm 22 30 mph 1013.5mb 26f
1:50pm 21 28 mph 1013.2mb 26f
1:40pm 21 28 mph 1013.5mb 26f
1:30pm 21 26 mph 1013.5mb 26f
1:20pm 22 26 mph 1013.5mb 26f
1:10pm 21 28 mph 1013.2mb 26f
1:00pm 22 30 mph 1013.5mb 26f
12:50pm 21 29 mph 1013.2mb 26f
12:40pm 23 28 mph 1013.2mb 27f
12:30pm 23 26 mph 1012.9mb 27f
12:20pm 21 29 mph 1012.9mb 27f
12:11pm 21 29 mph 1012.9mb 28f
12:10pm 21 28 mph 1012.9mb 28f
12:00pm 22 28 mph 1012.9mb 28f
11:50am 21 26 mph 1012.5mb 29f
11:40am 21 25 mph 1012.5mb 29f
11:30am 17 22 mph 1012.5mb 30f
11:20am 18 23 mph 1012.2mb 30f
11:10am 20 22 mph 1012.2mb 30f
11:00am 17 25 mph 1012.2mb 31f
10:50am 18 23 mph 1011.9mb 32f
10:40am 18 22 mph 1012.2mb 32f
10:30am 14 20 mph 1011.9mb 32f
10:20am 16 18 mph 1011.9mb 32f
10:10am 15 20 mph 1011.9mb 33f
10:00am 16 21 mph 1011.9mb 33f
9:50am 15 17 mph 1011.9mb 33f
9:40am 16 20 mph 1011.9mb 33f
9:30am 18 22 mph 1011.9mb 33f
9:20am 16 20 mph 1011.9mb 33f
9:10am 15 20 mph 1011.5mb 33f
9:00am 17 20 mph 1011.5mb 33f
8:50am 15 17 mph 1011.5mb 33f
8:40am 14 16 mph 1011.5mb 33f
8:30am 15 17 mph 1011.5mb 33f
8:20am 15 18 mph 1011.5mb 33f
8:10am 15 18 mph 1011.2mb 33f
8:00am 16 18 mph 1011.2mb 33f
7:50am 14 17 mph 1010.8mb 33f
7:40am 15 17 mph 1010.8mb 33f
7:30am 15 18 mph 1010.8mb 33f
7:20am 14 17 mph 1010.8mb 33f
7:10am 15 17 mph 1010.5mb 33f
7:00am 14 18 mph 1010.5mb 33f
6:50am 15 17 mph 1010.5mb 33f
6:40am 15 18 mph 1010.5mb 33f
6:30am 15 17 mph 1010.5mb 33f
6:20am 15 17 mph 1010.5mb 33f
6:10am 14 20 mph 1010.2mb 33f
6:00am 15 18 mph 1010.2mb 33f
5:50am 16 20 mph 1010.2mb 34f
5:40am 15 20 mph 1010.2mb 34f
5:30am 16 18 mph 1010.2mb 34f
5:20am 14 21 mph 1010.5mb 34f
5:10am 18 21 mph 1010.5mb 34f
5:00am 18 24 mph 1010.5mb 34f
4:50am 17 23 mph 1010.5mb 34f
4:40am 18 22 mph 1010.5mb 34f
4:30am 15 20 mph 1010.8mb 34f
4:20am 16 21 mph 1010.8mb 34f
4:10am 18 23 mph 1010.8mb 34f
4:00am 20 24 mph 1010.8mb 34f
3:50am 20 23 mph 1011.2mb 34f
3:40am 16 20 mph 1011.5mb 34f
3:30am 15 17 mph 1011.5mb 34f
3:20am 14 18 mph 1011.9mb 34f
3:10am 16 21 mph 1011.5mb 34f
3:00am 18 21 mph 1011.9mb 35f
2:50am 18 22 mph 1011.5mb 35f
2:40am 20 23 mph 1011.5mb 34f
2:30am 18 22 mph 1011.5mb 35f
2:20am 18 22 mph 1011.5mb 34f
2:10am 20 22 mph 1011.5mb 34f
2:00am 18 22 mph 1011.5mb 35f
1:50am 18 21 mph 1011.5mb 35f
1:40am 18 21 mph 1011.5mb 35f
1:30am 18 21 mph 1011.5mb 34f
1:20am 18 23 mph 1011.5mb 35f
1:10am 22 24 mph 1011.2mb 35f
1:00am 22 24 mph 1011.2mb 35f
12:50am 21 23 mph 1010.8mb 34f
12:40am 21 24 mph 1011.2mb 35f
12:30am 23 31 mph 1011.2mb 34f
12:20am 24 29 mph 1010.8mb 35f
12:10am 28 33 mph 1010.8mb 35f
12:08am 25 29 mph 1011.2mb 35f
12:00am 28 34 mph 1011.2mb 35f
Wed 03/25 11:50pm 29 36 mph 1010.8mb 35f
11:40pm 31 36 mph 1010.8mb 35f
11:30pm 30 37 mph 1010.8mb 35f
11:20pm 32 38 mph 1010.8mb 36f
11:10pm 31 37 mph 1010.8mb 36f
11:05pm 30
mph
1010.8mb 36f
11:00pm 30 38 mph 1010.8mb 36f
10:50pm 32 38 mph 1010.8mb 36f
10:40pm 31 36 mph 1010.8mb 36f
10:30pm 30 34 mph 1010.5mb 36f
10:20pm 30 34 mph 1010.5mb 36f
10:10pm 29 34 mph 1010.5mb 36f
10:05pm 31
mph
1010.5mb 36f
10:00pm 28 33 mph 1010.5mb 36f
9:50pm 29 36 mph 1010.5mb 35f
9:40pm 29 33 mph 1010.5mb 35f
9:30pm 28 34 mph 1010.5mb 35f
9:20pm 29 36 mph 1010.5mb 36f
9:10pm 31 39 mph 1010.8mb 36f
9:04pm 33 39 mph 1010.5mb 36f
9:00pm 31 39 mph 1010.8mb 36f
8:50pm 32 44 mph 1010.8mb 36f
8:40pm 37 47 mph 1010.5mb 37f
8:30pm 34 45 mph 1010.5mb 37f
8:20pm 33 43 mph 1010.2mb 37f
8:10pm 33 47 mph 1010.5mb 37f
8:04pm 34 40 mph 1010.2mb 37f
8:00pm 34 45 mph 1010.2mb 37f
7:50pm 34 43 mph 1009.8mb 37f
7:40pm 37 44 mph 1009.5mb 37f
7:30pm 32 41 mph 1009.5mb 37f
7:20pm 33 44 mph 1009.5mb 37f
7:10pm 34 43 mph 1009.5mb 37f
7:01pm 34 41 mph 1009.1mb 37f
7:00pm 34 44 mph 1009.1mb 37f
6:50pm 32 44 mph 1009.1mb 37f
6:40pm 34 40 mph 1009.1mb 37f
6:30pm 36 41 mph 1009.1mb 37f
6:21pm 33
mph
1009.1mb 37f
6:20pm 33 41 mph 1008.8mb 37f
6:10pm 33 44 mph 1008.8mb 37f
6:00pm 33 41 mph 1009.1mb 37f
5:57pm 32 41 mph 1008.8mb 36f
5:50pm 29 40 mph 1008.8mb 36f
5:40pm 33 43 mph 1008.8mb 36f
5:30pm 33 41 mph 1008.5mb 36f
5:20pm 36 47 mph 1008.5mb 36f
5:10pm 34 43 mph 1008.5mb 36f
5:00pm 32 41 mph 1008.5mb 36f
4:50pm 36 47 mph 1008.1mb 36f
4:40pm 34 47 mph 1008.1mb 36f
4:39pm 38 40 mph 1008.1mb 35f
4:30pm 37 48 mph 1008.1mb 35f
4:20pm 32 46 mph 1008.1mb 35f
4:10pm 36 49 mph 1008.1mb 35f
4:00pm 34 43 mph 1007.8mb 35f
3:50pm 33 44 mph 1008.1mb 35f
3:40pm 32 41 mph 1008.1mb 35f
3:37pm 33 41 mph 1007.8mb 35f
3:30pm 33 45 mph 1007.5mb 35f
3:20pm 34 46 mph 1007.5mb 34f
3:10pm 36 45 mph 1007.1mb 34f
3:00pm 39 46 mph 1007.1mb 34f
2:50pm 37 43 mph 1007.1mb 34f
2:40pm 33 43 mph 1007.1mb 34f
2:30pm 31 36 mph 1007.1mb 34f
2:20pm 29 34 mph 1007.1mb 33f
2:10pm 29 37 mph 1007.1mb 33f
2:00pm 29 37 mph 1007.5mb 34f
1:50pm 30 39 mph 1007.1mb 33f
1:40pm 31 38 mph 1007.1mb 33f
1:30pm 25 33 mph 1007.5mb 34f
1:20pm 25 29 mph 1007.1mb 34f
1:10pm 24 30 mph 1007.1mb 34f
1:00pm 25
mph
1006.8mb 34f
12:50pm 25 30 mph 1006.8mb 34f
12:40pm 24 30 mph 1006.8mb 34f
12:30pm 24 30 mph 1006.8mb 34f
12:20pm 26 33 mph 1006.8mb 34f
12:10pm 25 29 mph 1006.8mb 34f
12:00pm 22 29 mph 1006.8mb 34f
11:50am 20 26 mph 1006.8mb 34f
11:40am 14 24 mph 1007.1mb 34f
11:30am 15 20 mph 1007.1mb 33f
11:20am 13 17 mph 1007.1mb 33f
11:10am 11 14 mph 1007.1mb 32f
11:00am 9 16 mph 1007.1mb 32f
10:50am 11 14 mph 1007.8mb 32f
10:40am 13 15 mph 1007.5mb 32f
10:30am 10 14 mph 1007.5mb 32f
10:20am 3 8 mph 1007.5mb 32f
10:10am 5 7 mph 1007.5mb 32f
10:00am 1 7 mph 1007.5mb 32f
9:50am 2 6 mph 1007.5mb 32f
9:40am 1 7 mph 1007.5mb 32f
9:30am  -  7 mph 1007.5mb 32f
9:20am 2 10 mph 1007.5mb 32f
9:10am  -  11 mph 1007.5mb 32f
9:00am 3 11 mph 1007.1mb 32f
8:50am 3 10 mph 1007.5mb 32f
8:40am 1 14 mph 1007.5mb 32f
8:30am 3 13 mph 1007.8mb 32f
8:20am  -  17 mph 1007.8mb 32f
8:10am 6 9 mph 1008.1mb 31f
8:00am 1 9 mph 1008.1mb 31f
7:50am  -  6 mph 1008.5mb 31f
7:41am 1 14 mph 1008.8mb 31f
7:40am 1 7 mph 1008.8mb 31f
7:30am 3 14 mph 1009.5mb 32f
7:20am 2 10 mph 1009.5mb 32f
7:10am 1 10 mph 1008.8mb 31f
7:00am 3 10 mph 1009.1mb 31f
6:50am 3 9 mph 1009.1mb 31f
6:41am 2 11 mph 1009.8mb 31f
6:40am 2 8 mph 1009.8mb 31f
6:30am 2 9 mph 1010.2mb 31f
6:20am 1 9 mph 1010.2mb 32f
6:10am 3 11 mph 1010.5mb 31f
6:00am 5 9 mph 1010.8mb 31f
5:50am 1 9 mph 1011.2mb 31f
5:40am 3 8 mph 1011.9mb 31f
5:30am 3 11 mph 1011.9mb 31f
5:20am 3 8 mph 1012.2mb 30f
5:10am 1 7 mph 1012.5mb 30f
5:00am  -  5 mph 1013.2mb 30f
4:50am  -  6 mph 1013.5mb 30f
4:40am 1 8 mph 1014.2mb 30f